createdAt,value
2024-05-09T00:00:47.826Z,100923.87
2024-05-09T00:03:36.060Z,100923.61
2024-05-09T00:06:05.224Z,100924.65
2024-05-09T00:08:33.641Z,100924.94
2024-05-09T00:11:02.141Z,100920.61
2024-05-09T00:13:30.533Z,100915.98
2024-05-09T00:15:59.428Z,100918.29
2024-05-09T00:18:27.555Z,100917.06
2024-05-09T00:20:55.759Z,100916.71
2024-05-09T00:23:23.991Z,100913.83
2024-05-09T00:25:52.145Z,100912.05
2024-05-09T00:28:20.102Z,100909.48
2024-05-09T00:30:48.019Z,100903.30
2024-05-09T00:33:16.402Z,100898.73
2024-05-09T00:35:44.911Z,100894.27
2024-05-09T00:38:13.138Z,100891.29
2024-05-09T00:40:43.152Z,100893.24
2024-05-09T00:43:14.042Z,100892.86
2024-05-09T00:45:44.096Z,100895.52
2024-05-09T00:48:17.533Z,100896.45
2024-05-09T00:50:48.480Z,100902.95
2024-05-09T00:53:18.391Z,100911.37
2024-05-09T00:55:47.632Z,100915.00
2024-05-09T00:58:21.219Z,100913.73
2024-05-09T01:00:51.000Z,100911.97
2024-05-09T01:03:20.384Z,100909.15
2024-05-09T01:05:48.772Z,100904.35
2024-05-09T01:08:18.237Z,100903.96
2024-05-09T01:10:48.525Z,100908.14
2024-05-09T01:13:17.143Z,100904.38
2024-05-09T01:15:47.946Z,100903.44
2024-05-09T01:18:16.609Z,100902.59
2024-05-09T01:20:45.634Z,100902.98
2024-05-09T01:23:15.861Z,100903.63
2024-05-09T01:25:46.433Z,100907.62
2024-05-09T01:28:16.220Z,100907.20
2024-05-09T01:30:44.504Z,100902.63
2024-05-09T01:33:13.419Z,100902.36
2024-05-09T01:35:42.882Z,100903.25
2024-05-09T01:38:17.497Z,100895.73
2024-05-09T01:40:47.110Z,100895.42
2024-05-09T01:43:15.973Z,100893.79
2024-05-09T01:45:44.057Z,100896.14
2024-05-09T01:48:12.998Z,100895.92
2024-05-09T01:50:43.057Z,100899.45
2024-05-09T01:53:14.082Z,100894.80
2024-05-09T01:55:44.066Z,100895.76
2024-05-09T01:58:12.979Z,100895.76
2024-05-09T02:00:43.028Z,100893.09
2024-05-09T02:03:15.660Z,100896.50
2024-05-09T02:05:48.007Z,100900.04
2024-05-09T02:08:18.935Z,100905.50
2024-05-09T02:10:49.170Z,100905.27
2024-05-09T02:13:17.813Z,100902.66
2024-05-09T02:15:46.007Z,100902.63
2024-05-09T02:18:14.521Z,100905.14
2024-05-09T02:20:43.438Z,100904.58
2024-05-09T02:23:13.922Z,100908.44
2024-05-09T02:25:42.088Z,100909.73
2024-05-09T02:28:10.189Z,100909.55
2024-05-09T02:30:41.103Z,100909.52
2024-05-09T02:33:12.289Z,100909.91
2024-05-09T02:35:43.691Z,100912.35
2024-05-09T02:38:12.955Z,100912.55
2024-05-09T02:40:41.558Z,100913.20
2024-05-09T02:43:12.918Z,100910.55
2024-05-09T02:45:41.653Z,100910.70
2024-05-09T02:48:13.871Z,100911.52
2024-05-09T02:50:44.360Z,100907.98
2024-05-09T02:53:13.668Z,100908.58
2024-05-09T02:55:43.047Z,100911.21
2024-05-09T02:58:11.742Z,100914.52
2024-05-09T03:00:42.278Z,100913.14
2024-05-09T03:03:14.108Z,100919.38
2024-05-09T03:05:45.385Z,100920.55
2024-05-09T03:08:14.076Z,100915.90
2024-05-09T03:10:42.831Z,100914.92
2024-05-09T03:13:14.395Z,100918.04
2024-05-09T03:15:45.017Z,100917.28
2024-05-09T03:18:14.072Z,100915.00
2024-05-09T03:20:44.451Z,100919.08
2024-05-09T03:23:12.976Z,100923.63
2024-05-09T03:25:41.016Z,100924.06
2024-05-09T03:28:08.997Z,100923.77
2024-05-09T03:30:41.812Z,100929.02
2024-05-09T03:33:13.963Z,100926.48
2024-05-09T03:35:44.106Z,100933.04
2024-05-09T03:38:12.541Z,100938.96
2024-05-09T03:40:48.217Z,100942.66
2024-05-09T03:43:17.471Z,100943.21
2024-05-09T03:45:48.750Z,100946.02
2024-05-09T03:48:17.349Z,100948.42
2024-05-09T03:50:45.696Z,100946.08
2024-05-09T03:53:14.891Z,100949.77
2024-05-09T03:55:42.895Z,100956.23
2024-05-09T03:58:12.971Z,100958.91
2024-05-09T04:00:42.310Z,100962.33
2024-05-09T04:03:12.277Z,100962.98
2024-05-09T04:05:42.800Z,100961.92
2024-05-09T04:08:15.242Z,100963.20
2024-05-09T04:10:44.061Z,100965.95
2024-05-09T04:13:12.783Z,100971.90
2024-05-09T04:15:40.871Z,100973.33
2024-05-09T04:18:09.375Z,100975.40
2024-05-09T04:20:40.354Z,100979.44
2024-05-09T04:23:14.599Z,100986.34
2024-05-09T04:25:45.379Z,100993.14
2024-05-09T04:28:14.560Z,100998.79
2024-05-09T04:30:43.259Z,100997.94
2024-05-09T04:33:13.769Z,100997.82
2024-05-09T04:35:43.505Z,100997.60
2024-05-09T04:38:13.788Z,100999.95
2024-05-09T04:40:42.837Z,101000.04
2024-05-09T04:43:16.157Z,100997.86
2024-05-09T04:45:44.853Z,101001.80
2024-05-09T04:48:13.670Z,101006.02
2024-05-09T04:50:42.247Z,101007.66
2024-05-09T04:53:15.038Z,101005.50
2024-05-09T04:55:43.404Z,101007.95
2024-05-09T04:58:12.005Z,101009.84
2024-05-09T05:00:41.430Z,101014.73
2024-05-09T05:03:13.965Z,101016.41
2024-05-09T05:05:46.556Z,101020.14
2024-05-09T05:08:17.232Z,101023.30
2024-05-09T05:10:48.120Z,101025.30
2024-05-09T05:13:21.662Z,101031.83
2024-05-09T05:15:55.910Z,101035.35
2024-05-09T05:18:25.603Z,101035.11
2024-05-09T05:20:55.549Z,101038.14
2024-05-09T05:23:24.563Z,101037.30
2024-05-09T05:25:55.679Z,101037.96
2024-05-09T05:28:24.124Z,101043.46
2024-05-09T05:30:52.241Z,101043.64
2024-05-09T05:33:22.572Z,101042.13
2024-05-09T05:35:51.293Z,101039.77
2024-05-09T05:38:21.952Z,101040.14
2024-05-09T05:40:52.016Z,101043.55
2024-05-09T05:43:20.632Z,101040.98
2024-05-09T05:45:48.657Z,101043.88
2024-05-09T05:48:17.827Z,101042.53
2024-05-09T05:50:46.737Z,101044.70
2024-05-09T05:53:14.970Z,101044.52
2024-05-09T05:55:43.079Z,101046.67
2024-05-09T05:58:12.179Z,101047.05
2024-05-09T06:00:42.001Z,101049.98
2024-05-09T06:03:13.290Z,101053.34
2024-05-09T06:05:46.711Z,101053.96
2024-05-09T06:08:15.202Z,101054.29
2024-05-09T06:10:43.384Z,101060.30
2024-05-09T06:13:13.133Z,101059.36
2024-05-09T06:15:42.809Z,101064.60
2024-05-09T06:18:12.627Z,101065.48
2024-05-09T06:20:42.844Z,101067.92
2024-05-09T06:23:12.918Z,101068.84
2024-05-09T06:25:42.190Z,101067.27
2024-05-09T06:28:11.276Z,101068.36
2024-05-09T06:30:42.011Z,101062.80
2024-05-09T06:33:14.431Z,101061.55
2024-05-09T06:35:46.042Z,101061.26
2024-05-09T06:38:14.810Z,101059.40
2024-05-09T06:40:44.127Z,101060.80
2024-05-09T06:43:18.705Z,101062.42
2024-05-09T06:45:49.549Z,101062.13
2024-05-09T06:48:19.735Z,101062.20
2024-05-09T06:50:49.272Z,101060.73
2024-05-09T06:53:20.554Z,101059.36
2024-05-09T06:55:48.838Z,101058.89
2024-05-09T06:58:16.859Z,101061.42
2024-05-09T07:00:45.195Z,101065.64
2024-05-09T07:03:16.878Z,101065.27
2024-05-09T07:05:48.707Z,101067.92
2024-05-09T07:08:18.451Z,101067.68
2024-05-09T07:10:47.009Z,101068.11
2024-05-09T07:13:15.674Z,101065.98
2024-05-09T07:15:44.442Z,101067.31
2024-05-09T07:18:18.044Z,101063.92
2024-05-09T07:20:48.557Z,101062.95
2024-05-09T07:23:18.076Z,101066.29
2024-05-09T07:25:46.379Z,101061.77
2024-05-09T07:28:20.431Z,101066.46
2024-05-09T07:30:48.588Z,101068.98
2024-05-09T07:33:22.541Z,101066.02
2024-05-09T07:35:52.445Z,101066.70
2024-05-09T07:38:20.973Z,101068.42
2024-05-09T07:40:49.442Z,101070.37
2024-05-09T07:43:17.895Z,101066.70
2024-05-09T07:45:52.557Z,101065.22
2024-05-09T07:52:38.946Z,101063.47
2024-05-09T07:53:48.341Z,101060.96
2024-05-09T07:56:22.503Z,101063.94
2024-05-09T07:58:53.824Z,101062.77
2024-05-09T08:01:22.347Z,101064.48
2024-05-09T08:03:50.852Z,101068.23
2024-05-09T08:06:19.112Z,101070.19
2024-05-09T08:08:47.953Z,101069.06
2024-05-09T08:11:16.097Z,101072.19
2024-05-09T08:13:44.202Z,101068.12
2024-05-09T08:16:14.492Z,101068.75
2024-05-09T08:18:42.743Z,101068.02
2024-05-09T08:21:11.177Z,101069.52
2024-05-09T08:23:39.353Z,101072.36
2024-05-09T08:26:07.401Z,101073.44
2024-05-09T08:28:35.594Z,101070.36
2024-05-09T08:31:06.876Z,101072.65
2024-05-09T08:33:35.782Z,101069.58
2024-05-09T08:36:04.387Z,101070.42
2024-05-09T08:38:32.699Z,101066.70
2024-05-09T08:41:03.884Z,101067.37
2024-05-09T08:43:31.757Z,101066.91
2024-05-09T08:46:00.370Z,101060.64
2024-05-09T08:48:31.148Z,101059.50
2024-05-09T08:51:01.453Z,101058.79
2024-05-09T08:53:29.517Z,101058.36
2024-05-09T08:56:01.893Z,101057.05
2024-05-09T08:58:33.358Z,101057.33
2024-05-09T09:01:04.186Z,101058.17
2024-05-09T09:03:34.103Z,101058.29
2024-05-09T09:06:06.552Z,101060.02
2024-05-09T09:08:36.015Z,101057.99
2024-05-09T09:11:05.206Z,101059.76
2024-05-09T09:13:33.335Z,101059.52
2024-05-09T09:16:02.532Z,101057.13
2024-05-09T09:18:31.274Z,101055.69
2024-05-09T09:20:59.709Z,101050.45
2024-05-09T09:23:29.561Z,101054.13
2024-05-09T09:26:01.185Z,101056.56
2024-05-09T09:28:29.736Z,101051.81
2024-05-09T09:31:05.376Z,101050.90
2024-05-09T09:33:35.589Z,101051.26
2024-05-09T09:36:04.988Z,101049.65
2024-05-09T09:38:36.880Z,101054.14
2024-05-09T09:41:08.022Z,101057.11
2024-05-09T09:43:37.060Z,101055.86
2024-05-09T09:46:09.541Z,101057.50
2024-05-09T09:48:41.500Z,101062.11
2024-05-09T09:51:10.503Z,101058.20
2024-05-09T09:53:39.844Z,101058.39
2024-05-09T09:56:10.138Z,101057.98
2024-05-09T09:58:40.603Z,101054.16
2024-05-09T10:01:08.836Z,101051.58
2024-05-09T10:03:37.129Z,101052.70
2024-05-09T10:06:07.634Z,101053.16
2024-05-09T10:08:36.601Z,101051.46
2024-05-09T10:11:04.978Z,101053.77
2024-05-09T10:13:34.736Z,101051.02
2024-05-09T10:16:09.251Z,101053.53
2024-05-09T10:18:39.068Z,101055.11
2024-05-09T10:21:20.115Z,101054.41
2024-05-09T10:24:03.462Z,101053.09
2024-05-09T10:26:32.828Z,101056.20
2024-05-09T10:29:10.262Z,101053.33
2024-05-09T10:31:41.325Z,101050.44
2024-05-09T10:34:33.565Z,101047.07
2024-05-09T10:37:04.199Z,101040.04
2024-05-09T10:39:37.084Z,101038.35
2024-05-09T10:42:10.172Z,101034.94
2024-05-09T10:44:38.466Z,101033.77
2024-05-09T10:47:06.701Z,101029.77
2024-05-09T10:49:35.451Z,101025.60
2024-05-09T10:52:04.169Z,101024.73
2024-05-09T10:54:36.715Z,101025.04
2024-05-09T10:57:05.782Z,101026.84
2024-05-09T10:59:35.755Z,101018.16
2024-05-09T11:02:04.917Z,101019.36
2024-05-09T11:04:34.509Z,101020.52
2024-05-09T11:07:08.801Z,101018.79
2024-05-09T11:09:38.756Z,101017.27
2024-05-09T11:12:08.485Z,101012.15
2024-05-09T11:14:36.816Z,101010.55
2024-05-09T11:17:06.966Z,101014.04
2024-05-09T11:19:40.318Z,101010.57
2024-05-09T11:22:08.585Z,101007.36
2024-05-09T11:24:37.339Z,101007.59
2024-05-09T11:27:06.107Z,101004.99
2024-05-09T11:29:41.763Z,101001.02
2024-05-09T11:32:16.598Z,100998.07
2024-05-09T11:34:44.705Z,100998.45
2024-05-09T11:37:13.734Z,100999.59
2024-05-09T11:39:41.732Z,101003.29
2024-05-09T11:42:09.735Z,100999.03
2024-05-09T11:44:37.837Z,100997.97
2024-05-09T11:47:05.807Z,100999.83
2024-05-09T11:49:34.006Z,100999.56
2024-05-09T11:52:02.214Z,100999.69
2024-05-09T11:54:30.267Z,101002.06
2024-05-09T11:56:58.293Z,101000.92
2024-05-09T11:59:26.383Z,100999.09
2024-05-09T12:01:54.572Z,100996.92
2024-05-09T12:04:22.810Z,100996.73
2024-05-09T12:06:51.033Z,100996.15
2024-05-09T12:09:19.124Z,100992.95
2024-05-09T12:11:47.477Z,100990.01
2024-05-09T12:14:15.351Z,100987.71
2024-05-09T12:16:43.397Z,100982.81
2024-05-09T12:19:11.598Z,100980.08
2024-05-09T12:21:39.848Z,100978.64
2024-05-09T12:24:07.819Z,100980.04
2024-05-09T12:26:35.715Z,100977.25
2024-05-09T12:29:03.834Z,100973.56
2024-05-09T12:31:31.772Z,100973.23
2024-05-09T12:34:00.425Z,100970.83
2024-05-09T12:36:30.545Z,100969.43
2024-05-09T12:38:58.483Z,100966.98
2024-05-09T12:41:26.544Z,100966.27
2024-05-09T12:43:54.608Z,100967.30
2024-05-09T12:46:23.239Z,100966.28
2024-05-09T12:48:51.826Z,100968.90
2024-05-09T12:51:20.149Z,100968.23
2024-05-09T12:53:48.130Z,100966.17
2024-05-09T12:56:16.201Z,100966.54
2024-05-09T12:58:44.578Z,100963.40
2024-05-09T13:01:12.620Z,100964.17
2024-05-09T13:03:40.763Z,100962.84
2024-05-09T13:06:09.036Z,100960.41
2024-05-09T13:08:37.199Z,100960.05
2024-05-09T13:11:05.545Z,100954.45
2024-05-09T13:13:33.440Z,100957.41
2024-05-09T13:16:01.755Z,100955.38
2024-05-09T13:18:29.880Z,100950.70
2024-05-09T13:20:58.252Z,100945.23
2024-05-09T13:23:26.459Z,100943.08
2024-05-09T13:25:54.796Z,100942.37
2024-05-09T13:28:23.066Z,100942.89
2024-05-09T13:30:51.299Z,100936.23
2024-05-09T13:33:19.386Z,100933.34
2024-05-09T13:35:50.422Z,100930.44
2024-05-09T13:38:20.863Z,100929.30
2024-05-09T13:40:50.431Z,100932.31
2024-05-09T13:43:19.976Z,100928.86
2024-05-09T13:45:48.312Z,100924.22
2024-05-09T13:48:16.667Z,100924.38
2024-05-09T13:50:45.747Z,100926.89
2024-05-09T13:53:13.715Z,100920.83
2024-05-09T13:55:41.860Z,100918.45
2024-05-09T13:58:10.274Z,100914.52
2024-05-09T14:00:46.161Z,100917.04
2024-05-09T14:03:19.842Z,100918.92
2024-05-09T14:05:50.945Z,100918.55
2024-05-09T14:08:21.743Z,100919.74
2024-05-09T14:10:50.836Z,100922.30
2024-05-09T14:13:19.764Z,100919.82
2024-05-09T14:15:48.563Z,100915.43
2024-05-09T14:18:18.147Z,100911.90
2024-05-09T14:20:46.222Z,100907.28
2024-05-09T14:23:14.979Z,100908.91
2024-05-09T14:25:45.015Z,100909.16
2024-05-09T14:28:13.965Z,100912.05
2024-05-09T14:30:42.978Z,100913.44
2024-05-09T14:33:11.973Z,100913.71
2024-05-09T14:35:40.336Z,100916.56
2024-05-09T14:38:09.734Z,100914.34
2024-05-09T14:40:42.454Z,100914.80
2024-05-09T14:43:14.594Z,100917.07
2024-05-09T14:45:44.328Z,100917.87
2024-05-09T14:48:16.193Z,100914.81
2024-05-09T14:50:44.413Z,100914.41
2024-05-09T14:53:13.729Z,100913.73
2024-05-09T14:55:43.777Z,100911.17
2024-05-09T14:58:13.003Z,100912.04
2024-05-09T15:00:46.556Z,100914.08
2024-05-09T15:03:20.077Z,100920.27
2024-05-09T15:05:49.320Z,100919.95
2024-05-09T15:08:18.693Z,100914.54
2024-05-09T15:10:49.590Z,100915.87
2024-05-09T15:13:20.031Z,100914.08
2024-05-09T15:15:48.835Z,100908.70
2024-05-09T15:18:18.074Z,100904.14
2024-05-09T15:20:46.907Z,100899.11
2024-05-09T15:23:15.034Z,100894.98
2024-05-09T15:25:44.504Z,100891.89
2024-05-09T15:28:12.711Z,100891.94
2024-05-09T15:30:45.379Z,100894.41
2024-05-09T15:33:15.015Z,100897.94
2024-05-09T15:35:43.352Z,100900.30
2024-05-09T15:38:12.474Z,100901.02
2024-05-09T15:40:41.177Z,100900.86
2024-05-09T15:43:11.590Z,100900.38
2024-05-09T15:45:41.382Z,100905.13
2024-05-09T15:48:10.653Z,100901.99
2024-05-09T15:50:41.724Z,100897.48
2024-05-09T15:53:13.375Z,100900.27
2024-05-09T15:55:43.169Z,100897.68
2024-05-09T15:58:12.416Z,100898.23
2024-05-09T16:00:43.707Z,100898.75
2024-05-09T16:03:14.677Z,100898.62
2024-05-09T16:05:45.002Z,100901.45
2024-05-09T16:08:14.846Z,100903.10
2024-05-09T16:10:45.860Z,100904.31
2024-05-09T16:13:16.293Z,100904.36
2024-05-09T16:15:45.380Z,100904.09
2024-05-09T16:18:13.846Z,100905.46
2024-05-09T16:20:44.156Z,100905.55
2024-05-09T16:23:13.741Z,100907.05
2024-05-09T16:25:45.349Z,100909.42
2024-05-09T16:28:13.723Z,100913.73
2024-05-09T16:30:42.229Z,100918.02
2024-05-09T16:33:13.596Z,100920.42
2024-05-09T16:35:41.871Z,100918.73
2024-05-09T16:38:10.332Z,100915.00
2024-05-09T16:40:40.747Z,100916.55
2024-05-09T16:43:12.338Z,100920.02
2024-05-09T16:45:45.167Z,100923.84
2024-05-09T16:48:14.160Z,100926.96
2024-05-09T16:50:43.306Z,100929.14
2024-05-09T16:53:11.335Z,100932.24
2024-05-09T16:55:39.419Z,100932.18
2024-05-09T16:58:08.233Z,100937.70
2024-05-09T17:00:41.598Z,100941.29
2024-05-09T17:03:16.563Z,100943.29
2024-05-09T17:05:46.786Z,100941.60
2024-05-09T17:08:18.466Z,100944.52
2024-05-09T17:10:50.507Z,100949.17
2024-05-09T17:13:19.219Z,100951.16
2024-05-09T17:15:51.970Z,100951.80
2024-05-09T17:18:20.905Z,100952.41
2024-05-09T17:20:51.232Z,100954.42
2024-05-09T17:23:19.184Z,100956.14
2024-05-09T17:25:47.443Z,100959.88
2024-05-09T17:28:15.759Z,100960.32
2024-05-09T17:30:44.097Z,100955.85
2024-05-09T17:33:13.116Z,100957.38
2024-05-09T17:35:41.817Z,100960.31
2024-05-09T17:38:09.962Z,100961.59
2024-05-09T17:40:38.995Z,100964.10
2024-05-09T17:43:10.435Z,100968.40
2024-05-09T17:45:40.790Z,100972.05
2024-05-09T17:48:11.644Z,100977.08
2024-05-09T17:50:41.924Z,100979.88
2024-05-09T17:53:10.986Z,100987.55
2024-05-09T17:55:40.530Z,100991.13
2024-05-09T17:58:09.890Z,100994.64
2024-05-09T18:00:41.050Z,101002.75
2024-05-09T18:03:12.068Z,101008.12
2024-05-09T18:05:43.345Z,101013.92
2024-05-09T18:08:14.005Z,101014.13
2024-05-09T18:10:42.931Z,101013.51
2024-05-09T18:13:12.287Z,101014.08
2024-05-09T18:15:41.480Z,101014.65
2024-05-09T18:18:10.660Z,101016.06
2024-05-09T18:20:43.940Z,101026.95
2024-05-09T18:23:16.252Z,101033.02
2024-05-09T18:25:46.096Z,101032.11
2024-05-09T18:28:15.035Z,101035.27
2024-05-09T18:30:43.118Z,101033.94
2024-05-09T18:33:11.993Z,101032.55
2024-05-09T18:35:44.669Z,101041.14
2024-05-09T18:38:12.903Z,101039.11
2024-05-09T18:40:43.564Z,101044.20
2024-05-09T18:43:13.517Z,101043.36
2024-05-09T18:45:41.465Z,101045.32
2024-05-09T18:48:10.205Z,101047.33
2024-05-09T18:50:40.763Z,101048.17
2024-05-09T18:53:12.077Z,101052.84
2024-05-09T18:55:42.036Z,101057.63
2024-05-09T18:58:10.475Z,101056.61
2024-05-09T19:00:41.425Z,101058.40
2024-05-09T19:03:13.834Z,101061.62
2024-05-09T19:05:45.024Z,101062.88
2024-05-09T19:08:15.243Z,101062.89
2024-05-09T19:10:45.356Z,101067.58
2024-05-09T19:13:14.607Z,101064.73
2024-05-09T19:15:43.869Z,101062.70
2024-05-09T19:18:14.192Z,101064.48
2024-05-09T19:20:43.664Z,101068.96
2024-05-09T19:23:12.179Z,101069.10
2024-05-09T19:25:40.734Z,101071.63
2024-05-09T19:28:10.398Z,101072.95
2024-05-09T19:30:41.739Z,101077.14
2024-05-09T19:33:13.201Z,101073.43
2024-05-09T19:35:43.062Z,101074.64
2024-05-09T19:38:12.226Z,101073.56
2024-05-09T19:40:40.732Z,101075.43
2024-05-09T19:43:09.299Z,101077.64
2024-05-09T19:45:37.778Z,101080.08
2024-05-09T19:48:06.886Z,101078.56
2024-05-09T19:50:41.946Z,101076.77
2024-05-09T19:53:14.316Z,101078.52
2024-05-09T19:55:43.337Z,101079.65
2024-05-09T19:58:12.872Z,101080.70
2024-05-09T20:00:43.657Z,101083.02
2024-05-09T20:03:14.834Z,101086.57
2024-05-09T20:05:46.408Z,101086.28
2024-05-09T20:08:15.087Z,101089.16
2024-05-09T20:10:43.481Z,101096.30
2024-05-09T20:13:11.546Z,101096.17
2024-05-09T20:15:39.906Z,101093.34
2024-05-09T20:18:08.323Z,101093.75
2024-05-09T20:20:40.358Z,101094.55
2024-05-09T20:23:12.299Z,101092.76
2024-05-09T20:25:41.546Z,101094.35
2024-05-09T20:28:10.377Z,101091.32
2024-05-09T20:30:38.973Z,101090.86
2024-05-09T20:33:08.847Z,101094.98
2024-05-09T20:35:38.247Z,101095.23
2024-05-09T20:38:06.310Z,101097.79
2024-05-09T20:40:37.732Z,101099.18
2024-05-09T20:43:09.152Z,101095.73
2024-05-09T20:45:37.674Z,101101.41
2024-05-09T20:48:06.672Z,101101.66
2024-05-09T20:50:39.420Z,101101.19
2024-05-09T20:53:11.738Z,101098.34
2024-05-09T20:55:40.468Z,101097.31
2024-05-09T20:58:10.091Z,101103.11
2024-05-09T21:00:42.484Z,101105.17
2024-05-09T21:03:15.815Z,101103.76
2024-05-09T21:05:45.902Z,101103.81
2024-05-09T21:08:14.293Z,101102.06
2024-05-09T21:10:42.499Z,101102.29
2024-05-09T21:13:11.545Z,101100.48
2024-05-09T21:15:39.703Z,101100.99
2024-05-09T21:18:08.080Z,101099.15
2024-05-09T21:20:37.445Z,101102.44
2024-05-09T21:23:05.863Z,101105.25
2024-05-09T21:25:33.935Z,101105.20
2024-05-09T21:28:02.942Z,101105.36
2024-05-09T21:30:38.861Z,101107.33
2024-05-09T21:33:13.431Z,101111.73
2024-05-09T21:35:44.298Z,101114.02
2024-05-09T21:38:14.473Z,101112.26
2024-05-09T21:40:43.951Z,101111.96
2024-05-09T21:43:12.694Z,101112.80
2024-05-09T21:45:41.092Z,101112.70
2024-05-09T21:48:09.467Z,101116.11
2024-05-09T21:50:41.128Z,101111.02
2024-05-09T21:53:12.589Z,101114.16
2024-05-09T21:55:44.853Z,101111.70
2024-05-09T21:58:16.220Z,101108.27
2024-05-09T22:00:46.364Z,101102.42
2024-05-09T22:03:15.115Z,101098.30
2024-05-09T22:05:44.963Z,101097.84
2024-05-09T22:08:13.606Z,101101.11
2024-05-09T22:10:42.387Z,101102.13
2024-05-09T22:13:10.810Z,101105.34
2024-05-09T22:15:40.421Z,101103.09
2024-05-09T22:18:10.992Z,101098.88
2024-05-09T22:20:45.379Z,101100.56
2024-05-09T22:23:15.718Z,101099.23
2024-05-09T22:25:44.339Z,101100.05
2024-05-09T22:28:16.322Z,101098.10
2024-05-09T22:30:46.246Z,101093.70
2024-05-09T22:33:15.270Z,101092.13
2024-05-09T22:35:43.443Z,101091.43
2024-05-09T22:38:11.714Z,101089.53
2024-05-09T22:40:47.308Z,101089.23
2024-05-09T22:43:20.796Z,101094.10
2024-05-09T22:45:50.728Z,101094.43
2024-05-09T22:48:19.604Z,101094.33
2024-05-09T22:50:47.753Z,101092.08
2024-05-09T22:53:15.841Z,101093.06
2024-05-09T22:55:44.094Z,101092.75
2024-05-09T22:58:12.418Z,101094.64
2024-05-09T23:00:40.542Z,101091.40
2024-05-09T23:03:09.075Z,101087.27
2024-05-09T23:05:37.366Z,101087.08
2024-05-09T23:08:06.288Z,101085.50
2024-05-09T23:10:37.698Z,101087.73
2024-05-09T23:13:07.974Z,101086.98
2024-05-09T23:15:38.454Z,101087.62
2024-05-09T23:18:07.691Z,101086.11
2024-05-09T23:20:39.032Z,101090.37
2024-05-09T23:23:10.857Z,101093.95
2024-05-09T23:25:43.665Z,101095.54
2024-05-09T23:28:12.692Z,101093.23
2024-05-09T23:30:42.135Z,101089.35
2024-05-09T23:33:12.668Z,101087.65
2024-05-09T23:35:42.343Z,101085.29
2024-05-09T23:38:10.694Z,101079.19
2024-05-09T23:40:40.890Z,101081.07
2024-05-09T23:43:11.650Z,101086.21
2024-05-09T23:45:41.452Z,101086.46
2024-05-09T23:48:10.267Z,101086.02
2024-05-09T23:50:40.132Z,101086.64
2024-05-09T23:53:09.866Z,101087.60
2024-05-09T23:55:39.089Z,101091.09
2024-05-09T23:58:08.198Z,101089.64
